aviador You're here:

KMHS Decoded Metar

MOUNT SHASTA in CA, USA
Report Time2017-08-23 01:56:00
UTC Time2017-08-23 02:16:20
Flight Rules vfr VFR
WindCalm
Visibility9999 m
Phenomena:N/A
Clouds:Few 080 Hf
Scattered 100 Hf
Expected CloudBase > 4,000 ft AGL from Temp-Dew spread
CeilingNone
Temp25°C (ISA +17)
Dew Point15°C (54% RH)
QNH1019 hPa
Density Alt5,528 ft
Elevation3,537 ft
Report Wrong Elevation
Raw Report
METAR KMHS 230156Z AUTO 00000KT 7SM FEW080 SCT100 25/15 A3008 RMK AO2
SLP176 T02500150=

Extra information for KMHS:More info

Metar Taf Metar & Taf Last 4 Metars F.Rules Stats Wind Profile Meteogram Temp Stats Airport Information Weather charts Add Link Nearby VenuesMetar ALERT Operation Metar Decoded Social comments

AIRNAV info for KMHS